Time;durP1;ratioP1;P1;durP2;ratioP2;P2;SDS_P1;SDS_P2;PMS_P1;PMS_P2;Temp;Humidity;BMP_temperature;BMP_pressure;BME280_temperature;BME280_humidity;BME280_pressure;Samples;Min_cycle;Max_cycle;Signal;HPM_P1;HPM_P2
2021/03/03 00:00:29;;;;;;;13.55;6.53;;;;;;;0.27;86.73;100927.30;1706621;79;21662;-68
2021/03/03 00:02:57;;;;;;;14.50;6.65;;;;;;;0.25;86.67;100936.77;1735172;82;21534;-67
2021/03/03 00:05:25;;;;;;;15.80;7.40;;;;;;;0.20;86.58;100934.95;1748441;82;21180;-67
2021/03/03 00:07:53;;;;;;;11.70;6.15;;;;;;;0.19;87.06;100935.81;1735320;82;21172;-67
2021/03/03 00:10:22;;;;;;;12.95;6.70;;;;;;;0.19;86.84;100931.93;1748431;82;21222;-67
2021/03/03 00:12:49;;;;;;;11.22;6.62;;;;;;;0.18;87.06;100928.91;1735148;82;21148;-68
2021/03/03 00:15:18;;;;;;;13.10;6.55;;;;;;;0.16;87.19;100938.36;1736950;80;21587;-62
2021/03/03 00:17:46;;;;;;;14.68;6.35;;;;;;;0.12;87.03;100935.26;1676732;85;21208;-62
2021/03/03 00:20:16;;;;;;;14.10;7.08;;;;;;;0.13;87.34;100943.47;1676601;85;21226;-63
2021/03/03 00:22:44;;;;;;;13.18;6.60;;;;;;;0.12;87.27;100941.73;1676720;85;21379;-62
2021/03/03 00:25:12;;;;;;;15.00;6.42;;;;;;;0.11;87.26;100951.63;1676627;84;21212;-63
2021/03/03 00:27:40;;;;;;;14.38;6.75;;;;;;;0.07;87.18;100953.73;1676618;85;21208;-62
2021/03/03 00:30:11;;;;;;;12.45;7.08;;;;;;;0.01;87.11;100953.61;1678830;81;21236;-65
2021/03/03 00:32:38;;;;;;;11.97;6.10;;;;;;;0.01;87.33;100956.20;1744006;82;21150;-64
2021/03/03 00:35:08;;;;;;;10.05;5.72;;;;;;;0.00;87.37;100957.05;1743980;82;21377;-64
2021/03/03 00:37:37;;;;;;;13.53;7.08;;;;;;;-0.03;87.33;100954.38;1744074;82;21182;-63
2021/03/03 00:40:09;;;;;;;12.15;6.12;;;;;;;-0.04;87.69;100952.66;1744005;82;21181;-64
2021/03/03 00:42:37;;;;;;;14.78;6.37;;;;;;;-0.09;87.70;100946.09;1744139;82;21637;-64
2021/03/03 00:45:07;;;;;;;14.37;7.03;;;;;;;-0.09;87.61;100947.38;1741201;80;21186;31
2021/03/03 00:47:35;;;;;;;12.70;6.10;;;;;;;-0.07;87.90;100949.98;1687106;85;22178;-62
2021/03/03 00:50:07;;;;;;;12.10;6.65;;;;;;;-0.10;87.67;100949.94;1686973;85;21132;-63
2021/03/03 00:52:37;;;;;;;12.65;6.47;;;;;;;-0.13;87.80;100957.66;1690384;84;21262;-63
2021/03/03 00:55:08;;;;;;;13.48;7.05;;;;;;;-0.18;87.94;100956.27;1707089;83;21603;-63
2021/03/03 00:57:39;;;;;;;13.78;6.30;;;;;;;-0.19;87.91;100951.91;1680910;84;21651;-63
2021/03/03 01:00:12;;;;;;;14.03;6.45;;;;;;;-0.19;88.00;100954.93;1707865;80;21705;31
2021/03/03 01:02:40;;;;;;;12.55;7.03;;;;;;;-0.24;88.13;100950.53;1687577;84;21583;-67
2021/03/03 01:05:10;;;;;;;14.65;6.80;;;;;;;-0.24;88.33;100958.30;1687333;85;21204;-69
2021/03/03 01:07:38;;;;;;;13.68;6.10;;;;;;;-0.26;88.61;100961.27;1686845;83;21169;-66
2021/03/03 01:10:10;;;;;;;16.12;6.87;;;;;;;-0.27;88.22;100960.83;1686070;85;21156;-69
2021/03/03 01:12:39;;;;;;;11.20;5.95;;;;;;;-0.28;88.35;100964.24;1685933;85;21209;-68
2021/03/03 01:15:14;;;;;;;14.35;6.40;;;;;;;-0.33;88.34;100963.28;1686071;83;21180;-69
2021/03/03 01:17:42;;;;;;;11.50;6.22;;;;;;;-0.35;88.50;100966.69;1647977;87;21893;-62
2021/03/03 01:20:13;;;;;;;9.95;5.95;;;;;;;-0.34;88.86;100979.67;1647903;87;21207;-62
2021/03/03 01:22:40;;;;;;;20.60;6.95;;;;;;;-0.34;88.92;100975.78;1648146;87;21187;-63
2021/03/03 01:25:12;;;;;;;16.95;7.65;;;;;;;-0.33;88.95;100975.36;1648171;87;21397;-61
2021/03/03 01:27:40;;;;;;;13.10;7.63;;;;;;;-0.35;89.24;100975.31;1648416;87;21807;-62
2021/03/03 01:30:21;;;;;;;16.62;7.65;;;;;;;-0.36;88.94;100978.76;1618440;88;21459;-62
2021/03/03 01:32:48;;;;;;;12.65;6.90;;;;;;;-0.36;89.23;100974.88;1689893;84;21224;-69
2021/03/03 01:35:16;;;;;;;11.50;6.83;;;;;;;-0.36;89.03;100972.72;1712610;83;21151;-69
2021/03/03 01:37:45;;;;;;;13.58;6.80;;;;;;;-0.39;89.03;100977.41;1702769;83;21221;-69
2021/03/03 01:40:15;;;;;;;13.30;5.58;;;;;;;-0.40;89.12;100978.66;1702425;83;21202;-68
2021/03/03 01:42:43;;;;;;;11.78;6.30;;;;;;;-0.44;89.01;100983.78;1702878;83;21183;-69
2021/03/03 01:45:32;;;;;;;15.88;7.33;;;;;;;-0.43;89.10;100975.59;1702608;83;21207;-68
2021/03/03 01:48:01;;;;;;;13.08;6.33;;;;;;;-0.41;89.54;100988.15;1759150;81;21489;-62
2021/03/03 01:50:29;;;;;;;12.10;5.78;;;;;;;-0.43;89.40;100988.11;1747832;81;21444;-62
2021/03/03 01:52:56;;;;;;;12.03;6.95;;;;;;;-0.48;89.28;100984.98;1732942;82;21195;-61
2021/03/03 01:55:25;;;;;;;7.75;5.12;;;;;;;-0.48;89.30;100994.03;1733271;82;21141;-62
2021/03/03 01:57:52;;;;;;;14.75;7.42;;;;;;;-0.49;89.13;100996.16;1733143;82;21459;-62
2021/03/03 02:00:27;;;;;;;14.10;6.62;;;;;;;-0.49;89.41;100993.14;1732619;82;21143;-64
2021/03/03 02:02:55;;;;;;;14.60;7.08;;;;;;;-0.50;89.34;100991.83;1705563;84;21338;-63
2021/03/03 02:05:24;;;;;;;14.07;6.55;;;;;;;-0.51;89.38;100999.13;1705607;84;21200;-63
2021/03/03 02:08:05;;;;;;;14.18;7.05;;;;;;;-0.52;89.56;101001.27;1705338;84;21160;-64
2021/03/03 02:11:00;;;;;;;13.10;7.22;;;;;;;-0.52;89.34;101001.27;1705577;84;21227;-64
2021/03/03 02:13:31;;;;;;;12.65;5.85;;;;;;;-0.55;89.17;101002.47;1705855;84;21678;-64
2021/03/03 02:16:01;;;;;;;11.60;6.47;;;;;;;-0.59;89.66;101002.84;1701740;81;21367;-63
2021/03/03 02:18:30;;;;;;;10.30;6.43;;;;;;;-0.61;89.63;101008.40;1686466;84;21669;-63
2021/03/03 02:21:38;;;;;;;12.73;6.70;;;;;;;-0.60;89.65;101019.61;1686109;85;21162;-64
2021/03/03 02:24:14;;;;;;;12.37;6.12;;;;;;;-0.61;89.69;101017.88;1672576;83;21239;-62
2021/03/03 02:26:42;;;;;;;15.25;7.72;;;;;;;-0.62;89.60;101022.58;1701037;83;21175;-63
2021/03/03 02:29:13;;;;;;;15.70;6.95;;;;;;;-0.65;89.58;101026.84;1700792;84;21266;-63
2021/03/03 02:31:43;;;;;;;14.80;6.90;;;;;;;-0.66;89.64;101026.41;1695613;81;21267;-70
2021/03/03 02:34:13;;;;;;;15.32;6.90;;;;;;;-0.67;89.61;101029.84;1686559;84;21708;-71
2021/03/03 02:36:43;;;;;;;13.98;7.42;;;;;;;-0.71;89.83;101031.90;1664441;85;21220;-70
2021/03/03 02:39:11;;;;;;;12.73;6.28;;;;;;;-0.73;89.68;101030.98;1686154;85;21189;-69
2021/03/03 02:41:41;;;;;;;12.75;5.70;;;;;;;-0.75;89.61;101035.25;1673229;85;21206;-70
2021/03/03 02:44:09;;;;;;;12.90;7.37;;;;;;;-0.77;89.83;101042.09;1685679;85;21268;-70
2021/03/03 02:46:37;;;;;;;11.33;6.45;;;;;;;-0.77;89.79;101047.69;1676271;83;21201;-63
2021/03/03 02:49:06;;;;;;;16.32;7.25;;;;;;;-0.78;89.87;101053.29;1751588;81;21150;-63
2021/03/03 02:51:35;;;;;;;12.15;6.50;;;;;;;-0.79;90.02;101052.81;1757964;81;21167;-63
2021/03/03 02:54:03;;;;;;;11.63;6.78;;;;;;;-0.80;89.78;101051.08;1758005;81;21958;-63
2021/03/03 02:56:31;;;;;;;12.33;5.50;;;;;;;-0.81;89.88;101057.50;1757979;81;21186;-62
2021/03/03 02:58:59;;;;;;;13.22;6.30;;;;;;;-0.85;90.07;101059.16;1758079;81;21654;-62
2021/03/03 03:01:27;;;;;;;17.20;6.95;;;;;;;-0.82;90.33;101056.63;1726712;78;21203;-68
2021/03/03 03:04:14;;;;;;;13.55;7.08;;;;;;;-0.81;90.28;101062.25;1656818;86;21222;-68
2021/03/03 03:07:05;;;;;;;14.18;6.72;;;;;;;-0.84;90.05;101068.66;1661891;85;21255;-69
2021/03/03 03:09:51;;;;;;;12.82;7.40;;;;;;;-0.87;90.15;101066.00;1691361;83;21215;-71
2021/03/03 03:12:37;;;;;;;17.05;8.05;;;;;;;-0.87;90.48;101075.05;1663605;86;21130;-71
2021/03/03 03:15:27;;;;;;;18.00;7.35;;;;;;;-0.88;90.24;101075.88;1663752;86;21630;-69
2021/03/03 03:18:02;;;;;;;16.35;7.55;;;;;;;-0.91;90.05;101080.98;1691194;81;22168;-63
2021/03/03 03:20:34;;;;;;;10.23;5.45;;;;;;;-0.95;90.27;101074.84;1680197;82;21500;-63
2021/03/03 03:23:04;;;;;;;11.35;6.83;;;;;;;-0.98;90.17;101082.95;1731804;82;21665;-63
2021/03/03 03:25:32;;;;;;;15.13;7.45;;;;;;;-0.99;90.33;101082.48;1731675;82;21171;-63
2021/03/03 03:28:00;;;;;;;15.98;7.72;;;;;;;-0.97;90.50;101086.85;1731218;82;21175;-63
2021/03/03 03:30:29;;;;;;;17.12;7.35;;;;;;;-1.00;90.41;101079.45;1713667;83;21160;-62
2021/03/03 03:32:58;;;;;;;14.35;6.78;;;;;;;-1.01;90.33;101077.30;1723485;83;21263;-63
2021/03/03 03:35:29;;;;;;;15.15;7.78;;;;;;;-0.99;90.48;101077.31;1713525;83;21179;-63
2021/03/03 03:37:57;;;;;;;18.57;7.50;;;;;;;-0.99;90.57;101083.77;1691670;83;21649;-63
2021/03/03 03:40:26;;;;;;;17.87;7.95;;;;;;;-1.03;90.57;101078.09;1723642;83;21194;-64
2021/03/03 03:42:54;;;;;;;16.82;7.03;;;;;;;-1.06;90.48;101081.45;1739927;81;21638;-62
2021/03/03 03:45:23;;;;;;;13.60;6.60;;;;;;;-1.03;90.73;101084.56;1755308;81;21291;-63
2021/03/03 03:47:52;;;;;;;10.45;5.95;;;;;;;-1.06;90.82;101075.89;1755042;81;21181;-62
2021/03/03 03:50:20;;;;;;;13.30;6.72;;;;;;;-1.08;90.71;101076.27;1754617;80;21179;-63
2021/03/03 03:52:53;;;;;;;15.75;6.75;;;;;;;-1.07;90.90;101076.70;1754548;81;21191;-63
2021/03/03 03:55:34;;;;;;;10.98;6.03;;;;;;;-1.08;90.63;101085.31;1754785;81;21182;-63
2021/03/03 03:58:02;;;;;;;10.90;5.85;;;;;;;-1.11;90.45;101082.62;1754599;81;21337;-63
2021/03/03 04:00:31;;;;;;;12.98;6.03;;;;;;;-1.13;90.55;101084.72;1754487;81;21214;-63
2021/03/03 04:02:59;;;;;;;13.20;5.50;;;;;;;-1.16;90.53;101085.52;1754447;81;21172;-64
2021/03/03 04:05:27;;;;;;;13.05;6.20;;;;;;;-1.15;90.56;101085.98;1754597;81;21175;-63
2021/03/03 04:07:55;;;;;;;13.32;5.80;;;;;;;-1.16;90.62;101091.98;1754460;81;21175;-63
2021/03/03 04:10:28;;;;;;;15.28;6.37;;;;;;;-1.19;90.53;101093.20;1754599;81;21476;-61
2021/03/03 04:12:56;;;;;;;15.35;6.95;;;;;;;-1.17;90.72;101104.45;1754442;81;21139;-62
2021/03/03 04:15:24;;;;;;;11.08;5.87;;;;;;;-1.16;90.64;101101.02;1754648;81;21160;-61
2021/03/03 04:17:52;;;;;;;13.62;7.08;;;;;;;-1.21;90.47;101100.03;1754424;81;21186;-62
2021/03/03 04:20:21;;;;;;;11.53;5.35;;;;;;;-1.23;90.69;101100.41;1750072;81;21178;-63
2021/03/03 04:22:49;;;;;;;13.22;6.62;;;;;;;-1.22;90.71;101110.33;1724514;83;22222;-61
2021/03/03 04:25:17;;;;;;;16.32;7.15;;;;;;;-1.21;90.84;101103.91;1724487;83;21229;-63
2021/03/03 04:27:45;;;;;;;11.60;5.42;;;;;;;-1.22;90.71;101113.81;1724475;83;21598;-63
2021/03/03 04:30:16;;;;;;;11.75;7.37;;;;;;;-1.25;90.57;101118.01;1724668;83;21178;-63
2021/03/03 04:32:45;;;;;;;14.90;6.22;;;;;;;-1.25;90.98;101111.13;1723836;83;21194;-63
2021/03/03 04:35:14;;;;;;;15.32;6.87;;;;;;;-1.23;90.77;101119.80;1724674;83;21384;-62
2021/03/03 04:37:41;;;;;;;16.87;8.10;;;;;;;-1.25;90.77;101117.58;1724546;83;21673;-61
2021/03/03 04:40:11;;;;;;;11.08;5.87;;;;;;;-1.26;90.81;101123.60;1724527;83;21178;-62
2021/03/03 04:42:39;;;;;;;17.77;7.65;;;;;;;-1.29;90.60;101117.03;1724626;83;21179;-61
2021/03/03 04:45:11;;;;;;;15.60;7.25;;;;;;;-1.28;90.61;101125.27;1724504;83;21195;-62
2021/03/03 04:47:39;;;;;;;14.70;7.35;;;;;;;-1.28;90.71;101123.97;1724625;83;21372;-62
2021/03/03 04:50:09;;;;;;;16.12;7.65;;;;;;;-1.30;90.65;101128.22;1724564;81;21181;-62
2021/03/03 04:52:37;;;;;;;12.58;7.22;;;;;;;-1.30;90.72;101135.97;1724603;83;21142;-62
2021/03/03 04:55:07;;;;;;;19.27;7.80;;;;;;;-1.32;90.55;101137.64;1724552;83;21174;-63
2021/03/03 04:57:35;;;;;;;14.07;7.60;;;;;;;-1.33;90.44;101135.90;1724724;83;21202;-62
2021/03/03 05:00:05;;;;;;;16.80;6.78;;;;;;;-1.34;90.54;101141.88;1724655;83;21388;-63
2021/03/03 05:02:33;;;;;;;15.13;7.78;;;;;;;-1.36;90.38;101143.55;1724545;81;21182;-63
2021/03/03 05:05:01;;;;;;;13.98;7.40;;;;;;;-1.35;90.50;101146.61;1724526;83;21425;-63
2021/03/03 05:07:28;;;;;;;14.93;6.80;;;;;;;-1.32;90.48;101150.56;1724502;83;21198;-62
2021/03/03 05:09:56;;;;;;;16.37;7.55;;;;;;;-1.33;90.43;101153.98;1724615;83;21630;-62
2021/03/03 05:12:27;;;;;;;16.77;7.17;;;;;;;-1.33;90.63;101157.87;1724396;83;21154;-63
2021/03/03 05:14:55;;;;;;;15.13;6.87;;;;;;;-1.33;90.51;101159.16;1724499;83;21194;-64
2021/03/03 05:17:23;;;;;;;12.58;6.60;;;;;;;-1.29;90.56;101160.97;1725351;81;21186;-64
2021/03/03 05:19:53;;;;;;;13.30;6.33;;;;;;;-1.28;90.67;101161.45;1724550;82;21218;-66
2021/03/03 05:22:21;;;;;;;15.05;6.80;;;;;;;-1.23;90.54;101156.41;1753854;81;21190;-63
2021/03/03 05:24:48;;;;;;;13.95;7.00;;;;;;;-1.20;90.60;101161.22;1754591;81;21563;-63
2021/03/03 05:27:16;;;;;;;19.30;7.72;;;;;;;-1.17;90.52;101171.67;1754355;81;21210;-63
2021/03/03 05:29:44;;;;;;;17.07;6.83;;;;;;;-1.13;90.43;101172.22;1754712;81;21158;-63
2021/03/03 05:32:12;;;;;;;12.55;6.60;;;;;;;-1.06;90.40;101172.84;1754405;81;21123;-64
2021/03/03 05:34:40;;;;;;;13.50;7.03;;;;;;;-1.02;90.32;101183.25;1754520;81;21663;-64
2021/03/03 05:37:09;;;;;;;15.68;7.60;;;;;;;-0.83;90.49;101189.36;1748260;81;21386;-65
2021/03/03 05:39:36;;;;;;;14.23;6.65;;;;;;;-0.24;91.50;101186.11;1746558;81;21206;-65
2021/03/03 05:42:06;;;;;;;13.55;6.47;;;;;;;0.57;90.67;101184.44;1729968;81;21198;-67
2021/03/03 05:44:35;;;;;;;11.43;6.30;;;;;;;1.41;88.58;101177.39;1744649;81;21732;-64
2021/03/03 05:47:02;;;;;;;12.70;6.40;;;;;;;2.22;87.34;101179.06;1723766;81;21210;-64
2021/03/03 05:49:31;;;;;;;12.47;6.62;;;;;;;2.98;83.55;101182.17;1723438;83;21218;-64
2021/03/03 05:51:59;;;;;;;9.63;5.40;;;;;;;3.67;80.96;101171.53;1690790;83;21235;-63
2021/03/03 05:54:27;;;;;;;10.98;6.08;;;;;;;4.32;78.66;101177.60;1723418;83;21231;-64
2021/03/03 05:56:55;;;;;;;16.15;6.33;;;;;;;4.96;72.23;101172.22;1683452;81;21186;-64
2021/03/03 05:59:23;;;;;;;10.40;5.12;;;;;;;5.44;71.08;101167.95;1713148;81;21427;-63
2021/03/03 06:01:50;;;;;;;9.45;4.97;;;;;;;5.83;68.89;101178.83;1754196;81;21276;-63
2021/03/03 06:04:21;;;;;;;9.25;5.08;;;;;;;6.27;67.02;101177.91;1713832;80;21170;-66
2021/03/03 06:06:48;;;;;;;10.25;5.35;;;;;;;6.68;65.72;101179.97;1652749;83;21225;-65
2021/03/03 06:09:16;;;;;;;8.73;4.60;;;;;;;7.10;62.97;101181.48;1707972;83;21198;-65
2021/03/03 06:11:44;;;;;;;10.90;4.50;;;;;;;7.50;62.25;101177.72;1701286;83;21187;-65
2021/03/03 06:14:12;;;;;;;8.05;4.10;;;;;;;7.92;63.03;101181.75;1700099;83;22291;-64
2021/03/03 06:16:40;;;;;;;11.03;5.00;;;;;;;8.36;59.12;101180.42;1687572;84;21180;-65
2021/03/03 06:19:09;;;;;;;7.15;4.10;;;;;;;8.71;58.58;101178.30;1717845;80;21243;-69
2021/03/03 06:21:36;;;;;;;11.93;4.78;;;;;;;8.81;54.35;101177.28;1758477;81;21682;-67
2021/03/03 06:24:07;;;;;;;8.00;4.33;;;;;;;9.03;54.07;101168.23;1744776;81;21124;-69
2021/03/03 06:26:38;;;;;;;7.58;4.53;;;;;;;9.23;54.36;101178.91;1751580;81;21733;-70
2021/03/03 06:29:14;;;;;;;8.98;4.40;;;;;;;9.41;52.09;101174.69;1757835;81;21155;-69
2021/03/03 06:31:42;;;;;;;9.75;4.42;;;;;;;9.49;52.08;101168.44;1740063;81;21726;-68
2021/03/03 06:34:23;;;;;;;9.43;5.08;;;;;;;9.71;51.59;101167.20;1754916;78;21175;-67
2021/03/03 06:37:04;;;;;;;8.33;4.33;;;;;;;9.96;49.79;101166.33;1748827;81;21516;-70
2021/03/03 06:39:35;;;;;;;11.48;5.12;;;;;;;10.04;49.44;101167.50;1741610;82;21383;-67
2021/03/03 06:42:06;;;;;;;7.83;4.45;;;;;;;10.34;49.18;101169.17;1745291;80;21207;-66
2021/03/03 06:44:54;;;;;;;10.25;4.62;;;;;;;10.75;46.64;101171.42;1746827;82;21708;-69
2021/03/03 06:47:23;;;;;;;9.03;4.45;;;;;;;10.90;47.68;101173.70;1744252;82;21247;-67
2021/03/03 06:49:53;;;;;;;8.78;4.22;;;;;;;11.07;46.16;101170.72;1700596;79;21192;-70
2021/03/03 06:52:39;;;;;;;9.20;4.47;;;;;;;11.28;46.25;101165.41;1686707;85;21423;-70
2021/03/03 06:55:09;;;;;;;7.03;3.95;;;;;;;11.38;44.61;101161.63;1685854;85;21647;-71
2021/03/03 06:57:36;;;;;;;7.62;4.45;;;;;;;11.36;45.11;101160.80;1685759;85;21191;-71
2021/03/03 07:00:09;;;;;;;9.98;4.25;;;;;;;11.63;43.98;101154.45;1685984;85;21617;-70
2021/03/03 07:02:38;;;;;;;10.72;5.15;;;;;;;11.86;43.56;101157.36;1680882;84;21208;-70
2021/03/03 07:05:11;;;;;;;6.83;3.80;;;;;;;11.90;42.19;101168.75;1689266;80;22693;-67
2021/03/03 07:07:39;;;;;;;8.05;4.10;;;;;;;12.06;42.15;101166.58;1665557;85;21227;-68
2021/03/03 07:10:09;;;;;;;7.08;3.75;;;;;;;12.33;42.12;101163.19;1656268;86;21239;-68
2021/03/03 07:12:48;;;;;;;5.78;3.80;;;;;;;12.70;41.06;101170.06;1630430;86;21227;-67
2021/03/03 07:15:15;;;;;;;8.05;4.05;;;;;;;13.05;41.15;101165.95;1645013;86;21179;-69
2021/03/03 07:17:47;;;;;;;9.28;4.03;;;;;;;13.16;38.62;101166.02;1691848;84;22825;-68
2021/03/03 07:20:15;;;;;;;6.00;3.72;;;;;;;13.12;38.87;101171.00;1647026;83;21259;-68
2021/03/03 07:22:51;;;;;;;7.67;3.83;;;;;;;13.37;40.38;101171.59;1632151;87;22740;-68
2021/03/03 07:25:21;;;;;;;6.08;4.05;;;;;;;13.84;38.08;101166.49;1638323;85;21205;-69
2021/03/03 07:27:50;;;;;;;7.15;3.92;;;;;;;14.05;37.17;101178.98;1621002;87;21212;-68
2021/03/03 07:30:24;;;;;;;6.20;3.75;;;;;;;14.21;37.41;101171.37;1629849;87;21228;-69
2021/03/03 07:32:54;;;;;;;5.72;3.90;;;;;;;14.44;36.17;101177.62;1626763;87;21238;-69
2021/03/03 07:35:25;;;;;;;7.67;3.92;;;;;;;14.60;37.66;101176.64;1658176;82;21139;-69
2021/03/03 07:37:57;;;;;;;6.83;3.60;;;;;;;14.97;36.19;101168.62;1718929;83;21170;-70
2021/03/03 07:40:30;;;;;;;9.48;3.90;;;;;;;15.02;34.64;101163.99;1689352;82;21192;-68
2021/03/03 07:43:00;;;;;;;6.53;3.47;;;;;;;15.20;34.74;101172.55;1707813;82;22314;-68
2021/03/03 07:45:37;;;;;;;6.10;3.85;;;;;;;15.27;34.40;101159.44;1722406;82;21577;-69
2021/03/03 07:48:11;;;;;;;7.33;4.55;;;;;;;15.31;33.91;101166.83;1721137;82;21662;-68
2021/03/03 07:50:40;;;;;;;6.20;3.70;;;;;;;15.23;34.58;101172.89;1702805;80;21234;-70
2021/03/03 07:53:10;;;;;;;5.67;3.27;;;;;;;15.05;33.54;101175.83;1694404;83;21175;-71
2021/03/03 07:55:38;;;;;;;7.83;4.08;;;;;;;15.19;34.13;101173.48;1709589;83;21220;-70
2021/03/03 07:58:07;;;;;;;7.60;3.70;;;;;;;15.27;34.37;101170.52;1750561;81;21222;-70
2021/03/03 08:00:37;;;;;;;6.80;3.80;;;;;;;15.34;33.10;101169.81;1745652;81;25678;-70
2021/03/03 08:03:06;;;;;;;7.73;4.20;;;;;;;15.43;34.41;101176.08;1719470;81;21193;-71
2021/03/03 08:05:38;;;;;;;5.50;3.55;;;;;;;15.59;33.89;101178.50;1700052;81;21224;-69
2021/03/03 08:08:12;;;;;;;11.15;3.70;;;;;;;16.13;33.11;101173.63;1695254;83;21360;-67
2021/03/03 08:10:41;;;;;;;9.18;4.15;;;;;;;16.52;32.07;101170.14;1729730;82;21176;-65
2021/03/03 08:13:13;;;;;;;8.25;3.67;;;;;;;16.59;31.61;101168.92;1718098;82;21149;-68
2021/03/03 08:15:45;;;;;;;7.30;4.05;;;;;;;16.79;32.64;101165.36;1722650;82;21741;-67
2021/03/03 08:18:17;;;;;;;6.37;4.05;;;;;;;17.12;32.19;101170.05;1737197;82;21207;-69
2021/03/03 08:20:52;;;;;;;6.75;3.75;;;;;;;17.28;31.08;101171.51;1710060;79;21376;-70
2021/03/03 08:23:41;;;;;;;8.80;3.40;;;;;;;17.52;31.16;101168.95;1731319;81;21223;-69
2021/03/03 08:26:20;;;;;;;6.62;3.60;;;;;;;17.76;29.60;101162.88;1741206;81;21199;-69
2021/03/03 08:28:53;;;;;;;7.92;4.12;;;;;;;17.58;28.87;101171.32;1692496;83;21207;-68
2021/03/03 08:31:24;;;;;;;5.92;3.75;;;;;;;17.36;29.63;101168.84;1706955;83;21227;-68
2021/03/03 08:33:56;;;;;;;8.23;3.42;;;;;;;17.02;29.37;101164.27;1705720;82;21264;-67
2021/03/03 08:36:34;;;;;;;6.85;3.58;;;;;;;16.70;29.50;101164.41;1677451;83;21214;-66
2021/03/03 08:39:09;;;;;;;6.42;3.62;;;;;;;16.38;31.06;101172.08;1707802;82;21496;-67
2021/03/03 08:41:40;;;;;;;5.30;3.65;;;;;;;16.11;31.08;101165.72;1719673;83;21200;-66
2021/03/03 08:44:15;;;;;;;8.28;4.33;;;;;;;16.30;30.89;101164.91;1722280;81;21188;-66
2021/03/03 08:46:47;;;;;;;6.15;3.77;;;;;;;16.40;32.51;101155.57;1713918;82;21216;-67
2021/03/03 08:49:23;;;;;;;9.03;3.87;;;;;;;16.28;30.97;101164.11;1711218;81;22257;-68
2021/03/03 08:51:50;;;;;;;6.42;3.98;;;;;;;16.44;31.87;101157.17;1676304;83;21130;-70
2021/03/03 08:54:21;;;;;;;7.87;3.90;;;;;;;16.91;31.37;101150.61;1662715;83;21194;-70
2021/03/03 08:56:53;;;;;;;5.75;3.55;;;;;;;17.22;30.33;101159.81;1647708;85;21215;-69
2021/03/03 08:59:41;;;;;;;8.18;4.10;;;;;;;17.48;29.20;101161.19;1686099;84;21453;-70
2021/03/03 09:02:16;;;;;;;10.20;4.08;;;;;;;17.19;31.05;101155.50;1685293;83;21207;-70
2021/03/03 09:04:47;;;;;;;9.15;4.53;;;;;;;17.39;29.10;101163.39;1681122;81;21206;-67
2021/03/03 09:07:24;;;;;;;9.10;3.80;;;;;;;17.49;29.42;101165.59;1648670;85;21198;-67
2021/03/03 09:10:01;;;;;;;10.88;4.37;;;;;;;17.10;29.63;101166.59;1652071;85;21204;-67
2021/03/03 09:12:38;;;;;;;6.47;3.75;;;;;;;16.63;29.71;101174.95;1640465;85;21475;-65
2021/03/03 09:15:09;;;;;;;10.10;3.62;;;;;;;16.45;31.13;101172.20;1713266;82;21167;-66
2021/03/03 09:17:38;;;;;;;10.35;3.33;;;;;;;16.27;31.05;101176.54;1702143;82;21194;-67
2021/03/03 09:20:15;;;;;;;5.83;3.00;;;;;;;16.41;30.21;101175.07;1699655;80;21157;-67
2021/03/03 09:22:45;;;;;;;5.15;2.80;;;;;;;16.73;30.79;101178.92;1717579;82;21129;-66
2021/03/03 09:25:20;;;;;;;6.00;2.72;;;;;;;17.15;28.63;101175.21;1712372;82;21350;-65
2021/03/03 09:27:54;;;;;;;5.28;3.05;;;;;;;17.18;28.30;101180.38;1706285;82;21181;-67
2021/03/03 09:30:23;;;;;;;6.17;2.80;;;;;;;16.90;29.62;101181.69;1703138;82;21129;-65
2021/03/03 09:32:52;;;;;;;6.53;3.17;;;;;;;16.77;28.77;101177.83;1705691;82;21127;-65
2021/03/03 09:35:30;;;;;;;7.90;3.65;;;;;;;16.72;29.50;101177.19;1711994;80;21134;-67
2021/03/03 09:37:58;;;;;;;6.08;3.67;;;;;;;16.70;30.48;101173.73;1711187;83;21471;-68
2021/03/03 09:40:32;;;;;;;6.90;3.30;;;;;;;16.87;29.45;101176.52;1719226;83;21127;-68
2021/03/03 09:43:01;;;;;;;8.48;3.40;;;;;;;17.21;31.33;101169.61;1719145;83;21606;-67
2021/03/03 09:45:29;;;;;;;6.00;3.08;;;;;;;17.35;29.40;101174.27;1713449;82;21562;-66
2021/03/03 09:47:57;;;;;;;5.78;3.10;;;;;;;17.47;29.56;101176.31;1711418;83;21528;-69
2021/03/03 09:50:29;;;;;;;7.90;3.20;;;;;;;17.66;30.57;101156.28;1718214;79;21412;-67
2021/03/03 09:52:58;;;;;;;6.92;3.95;;;;;;;17.62;28.34;101169.35;1738839;82;21196;-66
2021/03/03 09:55:31;;;;;;;5.80;3.08;;;;;;;17.38;28.75;101162.97;1739167;82;21108;-66
2021/03/03 09:57:59;;;;;;;;;;;;;;;17.24;28.29;101158.80;1741784;82;21100;-66
2021/03/03 10:00:36;;;;;;;7.87;3.83;;;;;;;17.25;29.19;101156.99;1739292;82;20249;-66
2021/03/03 10:03:13;;;;;;;7.95;3.80;;;;;;;17.38;29.52;101153.66;1734101;82;22162;-66
2021/03/03 10:05:41;;;;;;;7.28;3.60;;;;;;;17.46;29.30;101155.08;1694173;81;21158;-66
2021/03/03 10:08:13;;;;;;;6.50;3.35;;;;;;;17.64;28.75;101145.31;1697531;83;21174;-66
2021/03/03 10:10:48;;;;;;;7.85;3.90;;;;;;;17.90;28.95;101144.00;1697260;84;21565;-66
2021/03/03 10:13:22;;;;;;;9.63;3.87;;;;;;;18.07;28.07;101144.48;1692760;84;21159;-66
2021/03/03 10:15:49;;;;;;;8.58;4.03;;;;;;;18.06;26.51;101136.08;1689241;85;21378;-66
2021/03/03 10:18:17;;;;;;;8.98;4.42;;;;;;;17.75;28.76;101137.64;1685990;84;21595;-65
2021/03/03 10:20:55;;;;;;;6.33;3.45;;;;;;;17.84;27.95;101133.69;1688863;81;21112;-67
2021/03/03 10:23:28;;;;;;;9.60;4.15;;;;;;;17.93;27.89;101130.55;1730907;82;21148;-68
2021/03/03 10:26:07;;;;;;;10.55;4.17;;;;;;;17.25;28.52;101124.57;1730743;82;21101;-67
2021/03/03 10:31:19;;;;;;;8.05;3.87;;;;;;;16.76;30.22;101128.23;1792862;79;22674;-66
2021/03/03 10:33:49;;;;;;;10.93;4.35;;;;;;;17.02;30.30;101123.50;1756717;79;21171;-66
2021/03/03 10:36:21;;;;;;;9.25;3.62;;;;;;;17.04;28.55;101116.31;1708404;78;21350;-66
2021/03/03 10:38:54;;;;;;;8.63;3.95;;;;;;;16.66;30.36;101118.98;1654908;86;26372;-67
2021/03/03 10:41:32;;;;;;;10.05;3.40;;;;;;;16.71;29.54;101122.27;1657593;86;21167;-65
2021/03/03 10:44:05;;;;;;;6.10;3.08;;;;;;;16.82;28.57;101104.05;1646782;86;21192;-67
2021/03/03 10:46:33;;;;;;;;;;;;;;;16.24;30.25;101117.33;1632936;87;21691;-65
2021/03/03 10:49:15;;;;;;;8.08;3.75;;;;;;;16.29;29.20;101120.66;1630925;87;21388;-65
2021/03/03 10:51:45;;;;;;;9.85;3.80;;;;;;;16.56;29.30;101114.09;1675299;81;22127;-67
2021/03/03 10:54:14;;;;;;;5.55;3.27;;;;;;;16.61;29.55;101112.98;1681379;84;21610;-66
2021/03/03 10:56:43;;;;;;;6.50;3.50;;;;;;;16.53;29.10;101106.23;1742874;82;21184;-67
2021/03/03 10:59:30;;;;;;;7.15;3.40;;;;;;;16.48;30.73;101108.24;1722014;81;22152;-66
2021/03/03 11:02:00;;;;;;;7.50;3.35;;;;;;;16.45;30.35;101103.08;1654765;85;21447;-66
2021/03/03 11:04:45;;;;;;;5.25;3.10;;;;;;;16.45;29.18;101096.43;1715728;82;21475;-66
2021/03/03 11:07:36;;;;;;;7.15;3.85;;;;;;;16.39;30.16;101098.03;1613490;87;21448;-65
2021/03/03 11:10:13;;;;;;;5.72;2.95;;;;;;;16.50;30.26;101093.09;1636615;87;21233;-66
2021/03/03 11:12:41;;;;;;;6.37;2.85;;;;;;;16.65;28.85;101097.28;1661658;86;21157;-65
2021/03/03 11:15:12;;;;;;;6.00;2.65;;;;;;;16.69;31.20;101093.08;1659160;86;21221;-67
2021/03/03 11:17:39;;;;;;;8.53;3.60;;;;;;;16.75;29.67;101082.64;1662290;86;21237;-65
2021/03/03 11:20:09;;;;;;;5.20;2.85;;;;;;;17.01;29.21;101087.20;1619309;83;21111;-69
2021/03/03 11:22:37;;;;;;;4.58;2.40;;;;;;;16.88;30.59;101093.09;1632498;87;21164;-69
2021/03/03 11:25:06;;;;;;;6.45;2.98;;;;;;;16.68;28.39;101083.83;1654933;86;21657;-69
2021/03/03 11:27:34;;;;;;;6.08;2.83;;;;;;;16.53;28.88;101082.30;1647289;86;21936;-70
2021/03/03 11:30:02;;;;;;;7.05;3.00;;;;;;;16.62;29.82;101076.16;1625975;87;21223;-70
2021/03/03 11:32:30;;;;;;;5.80;3.00;;;;;;;16.79;29.25;101074.91;1695285;84;21191;-69
2021/03/03 11:35:00;;;;;;;7.05;2.80;;;;;;;16.93;30.69;101072.47;1694463;80;21520;31
2021/03/03 11:37:28;;;;;;;4.72;2.70;;;;;;;16.81;28.17;101074.37;1694640;83;21168;-66
2021/03/03 11:39:56;;;;;;;5.22;2.80;;;;;;;16.39;27.32;101066.12;1719283;82;21403;-67
2021/03/03 11:42:24;;;;;;;6.30;2.42;;;;;;;15.53;28.34;101063.30;1730642;82;21212;-67